Aviation Digital Data Service (ADDS)

Output produced by METARs form (0408 UTC 24 January 2019)
found at http://www.aviationweather.gov/metar/data/
 
Forecast for: VTUU (UBON/RATCHATHANI, TH)
Text: TAF VTUU 232300Z 2400/2424 08004KT 7000 NSC
Forecast period: 0000 to 0300 UTC 24 January 2019
Forecast type: FROM: standard forecast or significant change
Winds: from the E (80 degrees) at 5 MPH (4 knots; 2.1 m/s)
Visibility: 4 miles (7 km)
Ceiling: unknown
Clouds: missing
Weather: no significant weather forecast for this period
Text: BECMG 2403/2405 9999 FEW035
Forecast period: 0300 to 1300 UTC 24 January 2019
Forecast type: BECOMING: Conditions expected to become as follows by 0500 UTC 24 January 2019
Winds: from the E (80 degrees) at 5 MPH (4 knots; 2.1 m/s)
Visibility: 6 or more miles 10+ km)
Ceiling: at least 12,000 feet AGL
Clouds: few clouds at 3500 feet AGL
Weather: no significant weather forecast for this period
Text: BECMG 2413/2415 8000 NSC
Forecast period: 1300 UTC 24 January 2019 to 0000 UTC 25 January 2019
Forecast type: BECOMING: Conditions expected to become as follows by 1500 UTC 24 January 2019
Winds: from the E (80 degrees) at 5 MPH (4 knots; 2.1 m/s)
Visibility: 5 miles (8 km)
Ceiling: unknown
Clouds: missing
Weather: no significant weather forecast for this period